Dati Storici

Data ora Umidita' aria (%) Temperatura aria (°C) Rad globale (W/m²) Gonioanemometro (°) Tacoanemometro (m/s) Pioggia (mm)
10-11-2012 23:10 85.6 % 11.424 4.054 76.77 2.285 0
10-11-2012 23:00 85.5 % 11.374 4.105 47.191 1.873 0
10-11-2012 22:50 85.3 % 11.37 3.961 39.729 2.065 0
10-11-2012 22:40 85.4 % 11.339 3.961 3.23 1.555 0
10-11-2012 22:30 85.3 % 11.304 3.961 18.457 1.847 0
10-11-2012 22:20 85.2 % 11.282 3.91 40.249 2.333 0
10-11-2012 22:10 85.2 % 11.27 3.897 2.403 1.157 0
10-11-2012 22:00 85.4 % 11.192 3.73 23.788 3.919 0
10-11-2012 21:50 85.2 % 11.059 3.833 17.873 2.232 0
10-11-2012 21:40 85 % 11.024 4.051 44.407 2.697 0
10-11-2012 21:30 84.6 % 11.037 3.987 22.475 3.806 0
10-11-2012 21:20 84.5 % 11.095 4.806 66.98 1.899 0
10-11-2012 21:10 84.3 % 11.124 4.986 48.191 2.178 0
10-11-2012 21:00 84.2 % 11.144 4.986 14.662 3.111 0
10-11-2012 20:50 84.1 % 11.144 5.037 74.17 1.529 0
10-11-2012 20:40 83.9 % 11.145 4.973 73.315 2.449 0
10-11-2012 20:30 83.7 % 11.175 4.87 41.259 3.75 0
10-11-2012 20:20 83.7 % 11.169 4.896 52.706 2.42 0
10-11-2012 20:10 84.1 % 11.18 5.062 32.119 3.394 0
10-11-2012 20:00 84.4 % 11.218 5.152 22.388 2.959 0

I dati sono presentati in modo automatico a scopo informativo. In seguito a verifica i dati possono subire modifiche o essere invalidati e non riportati negli archivi definitivi.